createdAt,value
2022-11-03T00:01:35.189Z,100.00
2022-11-03T00:04:02.960Z,100.00
2022-11-03T00:06:30.694Z,100.00
2022-11-03T00:09:01.103Z,100.00
2022-11-03T00:11:29.687Z,100.00
2022-11-03T00:13:57.918Z,100.00
2022-11-03T00:16:25.640Z,100.00
2022-11-03T00:18:53.437Z,100.00
2022-11-03T00:21:21.415Z,100.00
2022-11-03T00:23:49.130Z,100.00
2022-11-03T00:26:20.846Z,100.00
2022-11-03T00:28:49.916Z,100.00
2022-11-03T00:31:18.715Z,100.00
2022-11-03T00:33:47.054Z,100.00
2022-11-03T00:36:16.197Z,100.00
2022-11-03T00:38:44.196Z,100.00
2022-11-03T00:41:12.574Z,100.00
2022-11-03T00:43:41.863Z,100.00
2022-11-03T00:46:11.103Z,100.00
2022-11-03T00:48:39.353Z,100.00
2022-11-03T00:51:09.687Z,100.00
2022-11-03T00:53:39.366Z,100.00
2022-11-03T00:56:08.075Z,100.00
2022-11-03T00:58:35.731Z,100.00
2022-11-03T01:01:07.519Z,100.00
2022-11-03T01:03:37.074Z,100.00
2022-11-03T01:06:25.067Z,100.00
2022-11-03T01:08:52.810Z,100.00
2022-11-03T01:11:40.044Z,100.00
2022-11-03T01:14:07.954Z,100.00
2022-11-03T01:16:37.084Z,100.00
2022-11-03T01:19:05.483Z,100.00
2022-11-03T01:21:33.202Z,100.00
2022-11-03T01:24:01.957Z,100.00
2022-11-03T01:26:30.896Z,100.00
2022-11-03T01:29:00.029Z,100.00
2022-11-03T01:31:28.578Z,100.00
2022-11-03T01:33:58.493Z,100.00
2022-11-03T01:36:26.240Z,100.00
2022-11-03T01:38:55.264Z,100.00
2022-11-03T01:41:24.746Z,100.00
2022-11-03T01:44:20.641Z,100.00
2022-11-03T01:46:51.022Z,100.00
2022-11-03T01:49:24.488Z,100.00
2022-11-03T01:51:56.045Z,100.00
2022-11-03T01:54:25.186Z,100.00
2022-11-03T01:56:53.476Z,100.00
2022-11-03T01:59:24.846Z,100.00
2022-11-03T02:01:52.913Z,100.00
2022-11-03T02:04:24.111Z,100.00
2022-11-03T02:06:55.739Z,100.00
2022-11-03T02:09:23.459Z,100.00
2022-11-03T02:12:09.637Z,100.00
2022-11-03T02:14:39.355Z,100.00
2022-11-03T02:17:09.191Z,100.00
2022-11-03T02:19:40.902Z,100.00
2022-11-03T02:22:22.002Z,100.00
2022-11-03T02:24:54.135Z,100.00
2022-11-03T02:27:23.733Z,100.00
2022-11-03T02:29:51.497Z,100.00
2022-11-03T02:32:22.999Z,100.00
2022-11-03T02:34:55.518Z,100.00
2022-11-03T02:37:25.136Z,100.00
2022-11-03T02:39:55.768Z,100.00
2022-11-03T02:42:25.930Z,100.00
2022-11-03T02:44:54.223Z,100.00
2022-11-03T02:47:22.803Z,100.00
2022-11-03T02:49:52.351Z,100.00
2022-11-03T02:52:35.990Z,100.00
2022-11-03T02:55:10.397Z,100.00
2022-11-03T02:57:42.148Z,100.00
2022-11-03T03:00:10.789Z,100.00
2022-11-03T03:02:41.122Z,100.00
2022-11-03T03:05:10.122Z,100.00
2022-11-03T03:07:39.716Z,100.00
2022-11-03T03:10:10.005Z,100.00
2022-11-03T03:12:42.648Z,100.00
2022-11-03T03:15:11.030Z,100.00
2022-11-03T03:17:45.766Z,100.00
2022-11-03T03:20:17.167Z,100.00
2022-11-03T03:22:47.004Z,100.00
2022-11-03T03:25:16.980Z,100.00
2022-11-03T03:27:50.001Z,100.00
2022-11-03T03:30:18.924Z,100.00
2022-11-03T03:32:50.112Z,100.00
2022-11-03T03:35:21.169Z,100.00
2022-11-03T03:37:51.134Z,100.00
2022-11-03T03:40:22.773Z,100.00
2022-11-03T03:42:53.586Z,100.00
2022-11-03T03:45:21.865Z,100.00
2022-11-03T03:47:52.503Z,100.00
2022-11-03T03:50:23.585Z,100.00
2022-11-03T03:52:51.345Z,100.00
2022-11-03T03:55:20.654Z,100.00
2022-11-03T03:57:48.533Z,100.00
2022-11-03T04:00:19.373Z,100.00
2022-11-03T04:02:47.186Z,100.00
2022-11-03T04:05:15.002Z,100.00
2022-11-03T04:07:48.733Z,100.00
2022-11-03T04:10:16.752Z,100.00
2022-11-03T04:13:02.611Z,100.00
2022-11-03T04:15:50.223Z,100.00
2022-11-03T04:18:35.924Z,100.00
2022-11-03T04:21:21.303Z,100.00
2022-11-03T04:23:49.071Z,100.00
2022-11-03T04:26:18.427Z,100.00
2022-11-03T04:28:46.465Z,100.00
2022-11-03T04:31:17.058Z,100.00
2022-11-03T04:33:45.544Z,100.00
2022-11-03T04:36:17.534Z,100.00
2022-11-03T04:38:45.613Z,100.00
2022-11-03T04:41:16.801Z,100.00
2022-11-03T04:43:45.515Z,100.00
2022-11-03T04:46:16.847Z,100.00
2022-11-03T04:48:45.030Z,100.00
2022-11-03T04:51:16.327Z,100.00
2022-11-03T04:53:49.794Z,100.00
2022-11-03T04:56:20.128Z,100.00
2022-11-03T04:58:48.477Z,100.00
2022-11-03T05:01:23.729Z,100.00
2022-11-03T05:03:53.724Z,100.00
2022-11-03T05:06:23.579Z,100.00
2022-11-03T05:08:54.414Z,100.00
2022-11-03T05:11:25.807Z,100.00
2022-11-03T05:13:53.613Z,100.00
2022-11-03T05:16:22.666Z,100.00
2022-11-03T05:18:51.172Z,100.00
2022-11-03T05:21:20.601Z,100.00
2022-11-03T05:23:50.085Z,100.00
2022-11-03T05:26:19.930Z,100.00
2022-11-03T05:28:50.515Z,100.00
2022-11-03T05:31:25.096Z,100.00
2022-11-03T05:33:53.986Z,100.00
2022-11-03T05:36:23.906Z,100.00
2022-11-03T05:38:51.805Z,100.00
2022-11-03T05:41:23.914Z,100.00
2022-11-03T05:43:56.942Z,100.00
2022-11-03T05:46:29.167Z,100.00
2022-11-03T05:48:56.813Z,100.00
2022-11-03T05:51:26.693Z,100.00
2022-11-03T05:53:55.513Z,100.00
2022-11-03T05:56:25.919Z,100.00
2022-11-03T05:58:55.164Z,100.00
2022-11-03T06:01:27.601Z,100.00
2022-11-03T06:03:55.596Z,100.00
2022-11-03T06:06:32.002Z,100.00
2022-11-03T06:09:01.555Z,100.00
2022-11-03T06:11:33.693Z,100.00
2022-11-03T06:14:01.361Z,100.00
2022-11-03T06:16:49.767Z,100.00
2022-11-03T06:19:23.516Z,100.00
2022-11-03T06:21:53.529Z,100.00
2022-11-03T06:24:23.602Z,100.00
2022-11-03T06:26:53.318Z,100.00
2022-11-03T06:29:22.171Z,100.00
2022-11-03T06:31:52.641Z,100.00
2022-11-03T06:34:34.354Z,100.00
2022-11-03T06:37:13.622Z,100.00
2022-11-03T06:39:41.897Z,100.00
2022-11-03T06:42:13.305Z,100.00
2022-11-03T06:44:42.562Z,100.00
2022-11-03T06:47:24.276Z,100.00
2022-11-03T06:49:53.527Z,100.00
2022-11-03T06:52:29.950Z,100.00
2022-11-03T06:55:23.663Z,100.00
2022-11-03T06:57:54.231Z,100.00
2022-11-03T07:00:41.071Z,100.00
2022-11-03T07:03:15.730Z,100.00
2022-11-03T07:05:45.316Z,100.00
2022-11-03T07:08:22.825Z,100.00
2022-11-03T07:10:52.172Z,100.00
2022-11-03T07:13:21.676Z,100.00
2022-11-03T07:15:49.541Z,100.00
2022-11-03T07:18:22.288Z,100.00
2022-11-03T07:20:50.484Z,100.00
2022-11-03T07:23:21.106Z,100.00
2022-11-03T07:25:53.456Z,100.00
2022-11-03T07:28:22.848Z,100.00
2022-11-03T07:30:50.714Z,100.00
2022-11-03T07:33:22.308Z,100.00
2022-11-03T07:38:39.578Z,100.00
2022-11-03T07:41:10.570Z,100.00
2022-11-03T07:43:38.648Z,100.00
2022-11-03T07:46:08.272Z,100.00
2022-11-03T07:48:40.380Z,100.00
2022-11-03T07:51:17.536Z,100.00
2022-11-03T07:53:47.638Z,100.00
2022-11-03T07:56:19.676Z,100.00
2022-11-03T07:58:49.089Z,100.00
2022-11-03T08:01:27.017Z,100.00
2022-11-03T08:03:57.874Z,100.00
2022-11-03T08:06:25.733Z,100.00
2022-11-03T08:08:53.589Z,100.00
2022-11-03T08:11:26.110Z,100.00
2022-11-03T08:13:57.035Z,100.00
2022-11-03T08:16:24.843Z,100.00
2022-11-03T08:18:52.689Z,100.00
2022-11-03T08:21:21.935Z,100.00
2022-11-03T08:23:49.800Z,100.00
2022-11-03T08:26:17.605Z,100.00
2022-11-03T08:28:45.468Z,100.00
2022-11-03T08:31:13.533Z,100.00
2022-11-03T08:33:41.920Z,100.00
2022-11-03T08:36:10.384Z,100.00
2022-11-03T08:38:39.762Z,100.00
2022-11-03T08:41:07.736Z,100.00
2022-11-03T08:43:35.683Z,100.00
2022-11-03T08:46:15.479Z,100.00
2022-11-03T08:48:46.182Z,100.00
2022-11-03T08:51:14.771Z,100.00
2022-11-03T08:53:44.389Z,100.00
2022-11-03T08:56:14.254Z,100.00
2022-11-03T08:58:43.082Z,100.00
2022-11-03T09:01:11.112Z,100.00
2022-11-03T09:03:39.298Z,100.00
2022-11-03T09:06:07.765Z,100.00
2022-11-03T09:11:25.014Z,100.00
2022-11-03T09:13:52.956Z,100.00
2022-11-03T09:16:20.782Z,100.00
2022-11-03T09:18:48.612Z,100.00
2022-11-03T09:21:16.513Z,100.00
2022-11-03T09:23:44.319Z,100.00
2022-11-03T09:26:12.319Z,100.00
2022-11-03T09:28:41.637Z,100.00
2022-11-03T09:31:09.615Z,100.00
2022-11-03T09:33:37.558Z,100.00
2022-11-03T09:36:05.694Z,100.00
2022-11-03T09:38:33.570Z,100.00
2022-11-03T09:41:02.371Z,100.00
2022-11-03T09:43:30.610Z,100.00
2022-11-03T09:46:00.381Z,100.00
2022-11-03T09:48:28.758Z,100.00
2022-11-03T09:50:57.133Z,100.00
2022-11-03T09:53:25.940Z,100.00
2022-11-03T11:10:31.415Z,100.00
2022-11-03T12:24:26.127Z,73.98
2022-11-03T12:42:05.375Z,77.07
2022-11-03T13:42:20.003Z,85.79
2022-11-03T13:50:43.953Z,87.91
2022-11-03T14:24:48.062Z,88.37
2022-11-03T14:39:41.712Z,92.59
2022-11-03T14:42:15.977Z,91.99
2022-11-03T14:44:45.417Z,91.83
2022-11-03T14:47:19.681Z,94.19
2022-11-03T14:49:49.086Z,93.10
2022-11-03T14:56:05.408Z,92.83
2022-11-03T15:00:29.621Z,92.84
2022-11-03T17:31:22.620Z,100.00
2022-11-03T17:33:50.641Z,100.00
2022-11-03T17:36:19.439Z,100.00
2022-11-03T17:38:47.312Z,100.00
2022-11-03T17:41:18.035Z,100.00
2022-11-03T17:43:48.263Z,100.00
2022-11-03T17:46:15.904Z,100.00
2022-11-03T17:48:43.642Z,100.00
2022-11-03T17:51:13.643Z,99.28
2022-11-03T17:53:43.022Z,98.55
2022-11-03T17:56:29.630Z,97.67
2022-11-03T17:58:59.821Z,97.73
2022-11-03T18:01:28.162Z,97.29
2022-11-03T18:03:56.079Z,97.59
2022-11-03T18:06:23.839Z,98.27
2022-11-03T18:08:51.566Z,98.32
2022-11-03T18:11:39.786Z,99.23
2022-11-03T18:14:08.843Z,99.44
2022-11-03T18:16:36.578Z,99.88
2022-11-03T18:19:04.601Z,100.00
2022-11-03T18:21:32.988Z,100.00
2022-11-03T18:24:00.636Z,100.00
2022-11-03T18:26:28.627Z,100.00
2022-11-03T18:28:56.289Z,100.00
2022-11-03T18:31:33.796Z,100.00
2022-11-03T18:34:02.624Z,100.00
2022-11-03T18:36:31.076Z,100.00
2022-11-03T18:38:58.870Z,100.00
2022-11-03T18:41:40.421Z,100.00
2022-11-03T18:44:20.220Z,100.00
2022-11-03T18:46:51.289Z,100.00
2022-11-03T18:49:19.570Z,100.00
2022-11-03T18:51:50.412Z,100.00
2022-11-03T18:54:20.523Z,100.00
2022-11-03T18:56:48.726Z,100.00
2022-11-03T18:59:21.717Z,100.00
2022-11-03T19:01:50.865Z,100.00
2022-11-03T19:04:19.212Z,100.00
2022-11-03T19:06:48.825Z,100.00
2022-11-03T19:09:19.674Z,100.00
2022-11-03T19:11:48.527Z,100.00
2022-11-03T19:14:19.104Z,100.00
2022-11-03T19:17:02.176Z,100.00
2022-11-03T19:19:40.279Z,100.00
2022-11-03T19:22:12.804Z,100.00
2022-11-03T19:24:40.430Z,100.00
2022-11-03T19:27:10.983Z,100.00
2022-11-03T19:29:40.007Z,100.00
2022-11-03T19:32:12.886Z,100.00
2022-11-03T19:34:42.124Z,100.00
2022-11-03T19:37:11.246Z,100.00
2022-11-03T19:39:41.129Z,100.00
2022-11-03T19:42:28.099Z,100.00
2022-11-03T19:44:56.260Z,100.00
2022-11-03T19:47:27.052Z,100.00
2022-11-03T19:49:59.905Z,100.00
2022-11-03T19:52:29.587Z,100.00
2022-11-03T19:54:58.206Z,100.00
2022-11-03T19:57:25.944Z,100.00
2022-11-03T19:59:58.704Z,100.00
2022-11-03T20:02:27.890Z,100.00
2022-11-03T20:04:55.853Z,100.00
2022-11-03T20:07:30.998Z,100.00
2022-11-03T20:09:59.229Z,100.00
2022-11-03T20:12:26.884Z,100.00
2022-11-03T20:14:54.876Z,100.00
2022-11-03T20:17:23.844Z,100.00
2022-11-03T20:19:53.240Z,100.00
2022-11-03T20:22:27.389Z,100.00
2022-11-03T20:24:59.571Z,100.00
2022-11-03T20:27:27.085Z,100.00
2022-11-03T20:29:54.761Z,100.00
2022-11-03T20:32:23.063Z,100.00
2022-11-03T20:34:50.781Z,100.00
2022-11-03T20:37:20.249Z,100.00
2022-11-03T20:39:49.556Z,100.00
2022-11-03T20:42:20.555Z,100.00
2022-11-03T20:44:48.300Z,100.00
2022-11-03T20:47:17.365Z,100.00
2022-11-03T20:49:45.192Z,100.00
2022-11-03T20:52:14.081Z,100.00
2022-11-03T20:54:43.238Z,100.00
2022-11-03T20:57:12.876Z,100.00
2022-11-03T20:59:41.252Z,100.00
2022-11-03T21:02:11.765Z,100.00
2022-11-03T21:04:40.632Z,100.00
2022-11-03T21:07:10.391Z,100.00
2022-11-03T21:09:38.470Z,100.00
2022-11-03T21:12:06.816Z,100.00
2022-11-03T21:14:35.992Z,100.00
2022-11-03T21:17:21.339Z,100.00
2022-11-03T21:20:04.145Z,100.00
2022-11-03T21:25:24.558Z,100.00
2022-11-03T21:27:53.638Z,100.00
2022-11-03T21:30:23.786Z,100.00
2022-11-03T21:32:51.821Z,100.00
2022-11-03T21:35:21.328Z,100.00
2022-11-03T21:37:49.352Z,100.00
2022-11-03T21:40:17.643Z,100.00
2022-11-03T21:43:02.787Z,100.00
2022-11-03T21:45:32.162Z,100.00
2022-11-03T21:48:18.031Z,100.00
2022-11-03T21:50:45.989Z,100.00
2022-11-03T21:53:13.849Z,100.00
2022-11-03T21:55:41.909Z,100.00
2022-11-03T21:58:09.860Z,100.00
2022-11-03T22:00:38.915Z,100.00
2022-11-03T22:03:07.011Z,100.00
2022-11-03T22:05:34.881Z,100.00
2022-11-03T22:08:02.846Z,100.00
2022-11-03T22:10:30.513Z,100.00
2022-11-03T22:12:58.160Z,100.00
2022-11-03T22:15:43.515Z,100.00
2022-11-03T22:18:13.092Z,100.00
2022-11-03T22:20:58.757Z,100.00
2022-11-03T22:23:43.816Z,100.00
2022-11-03T22:26:29.408Z,100.00
2022-11-03T22:29:12.527Z,100.00
2022-11-03T22:31:42.940Z,100.00
2022-11-03T22:34:29.546Z,100.00
2022-11-03T22:36:57.356Z,100.00
2022-11-03T22:39:42.842Z,100.00
2022-11-03T22:42:29.956Z,100.00
2022-11-03T22:45:15.304Z,100.00
2022-11-03T22:47:43.065Z,100.00
2022-11-03T22:50:12.309Z,100.00
2022-11-03T22:52:40.143Z,100.00
2022-11-03T22:55:07.401Z,100.00
2022-11-03T22:57:35.089Z,100.00
2022-11-03T23:00:05.533Z,100.00
2022-11-03T23:02:33.528Z,100.00
2022-11-03T23:05:01.482Z,100.00
2022-11-03T23:07:33.063Z,100.00
2022-11-03T23:10:05.111Z,100.00
2022-11-03T23:12:32.981Z,100.00
2022-11-03T23:15:18.113Z,100.00
2022-11-03T23:18:03.205Z,100.00
2022-11-03T23:20:48.696Z,100.00
2022-11-03T23:23:31.697Z,99.17
2022-11-03T23:25:59.471Z,99.15
2022-11-03T23:28:27.160Z,99.66
2022-11-03T23:30:54.849Z,99.00
2022-11-03T23:33:22.551Z,98.80
2022-11-03T23:35:50.367Z,98.62
2022-11-03T23:38:19.589Z,99.05
2022-11-03T23:40:47.238Z,98.93
2022-11-03T23:43:14.903Z,100.00
2022-11-03T23:45:59.930Z,99.84
2022-11-03T23:48:45.359Z,98.88
2022-11-03T23:51:13.264Z,99.68
2022-11-03T23:53:42.497Z,99.18
2022-11-03T23:56:28.659Z,99.07
2022-11-03T23:58:56.562Z,100.00
